createdAt,value
2023-02-14T00:00:01.926Z,7.10
2023-02-14T00:04:04.010Z,5.80
2023-02-14T00:07:59.109Z,5.50
2023-02-14T00:11:40.340Z,7.00
2023-02-14T00:15:21.542Z,6.30
2023-02-14T00:19:03.203Z,6.00
2023-02-14T00:22:25.838Z,7.50
2023-02-14T00:26:22.329Z,6.50
2023-02-14T00:30:04.829Z,7.20
2023-02-14T00:33:28.976Z,6.70
2023-02-14T00:37:26.560Z,7.10
2023-02-14T00:40:49.313Z,6.90
2023-02-14T00:44:28.779Z,6.90
2023-02-14T00:48:23.679Z,7.30
2023-02-14T00:51:45.907Z,7.70
2023-02-14T00:55:48.764Z,7.00
2023-02-14T00:59:11.593Z,7.40
2023-02-14T01:03:07.687Z,6.90
2023-02-14T01:06:51.050Z,7.10
2023-02-14T01:10:15.568Z,7.40
2023-02-14T01:13:56.411Z,7.10
2023-02-14T01:17:30.877Z,7.10
2023-02-14T01:21:33.319Z,5.80
2023-02-14T01:25:14.536Z,6.40
2023-02-14T01:28:37.848Z,7.10
2023-02-14T01:32:14.354Z,6.30
2023-02-14T01:35:52.321Z,6.00
2023-02-14T01:39:31.286Z,6.30
2023-02-14T01:43:31.800Z,6.70
2023-02-14T01:47:23.950Z,5.80
2023-02-14T01:50:50.319Z,4.40
2023-02-14T01:54:27.821Z,5.70
2023-02-14T01:58:27.730Z,5.40
2023-02-14T02:01:55.125Z,5.70
2023-02-14T02:05:27.887Z,6.80
2023-02-14T02:09:34.998Z,5.40
2023-02-14T02:13:18.816Z,6.80
2023-02-14T02:17:24.774Z,5.00
2023-02-14T02:20:53.065Z,6.70
2023-02-14T02:25:02.198Z,6.80
2023-02-14T02:29:14.567Z,5.50
2023-02-14T02:32:57.100Z,4.70
2023-02-14T02:36:45.590Z,7.10
2023-02-14T02:40:44.691Z,6.80
2023-02-14T02:45:06.062Z,5.50
2023-02-14T02:48:45.030Z,5.60
2023-02-14T02:53:05.451Z,6.40
2023-02-14T02:56:47.431Z,5.40
2023-02-14T03:00:29.982Z,6.30
2023-02-14T03:04:16.149Z,5.20
2023-02-14T03:07:58.080Z,5.70
2023-02-14T03:11:55.988Z,5.80
2023-02-14T03:15:38.550Z,6.50
2023-02-14T03:20:14.647Z,6.70
2023-02-14T03:24:02.558Z,6.50
2023-02-14T03:27:59.105Z,4.90
2023-02-14T03:31:32.119Z,6.40
2023-02-14T03:35:01.768Z,5.90
2023-02-14T03:38:45.645Z,5.50
2023-02-14T03:42:26.145Z,5.60
2023-02-14T03:45:58.885Z,5.80
2023-02-14T03:49:33.543Z,5.20
2023-02-14T03:53:09.987Z,4.80
2023-02-14T03:56:53.144Z,5.10
2023-02-14T04:00:45.470Z,5.50
2023-02-14T04:04:08.997Z,5.40
2023-02-14T04:08:04.126Z,5.40
2023-02-14T04:11:27.232Z,5.20
2023-02-14T04:15:23.129Z,6.10
2023-02-14T04:19:22.530Z,5.70
2023-02-14T04:23:03.812Z,5.40
2023-02-14T04:26:25.690Z,4.60
2023-02-14T04:30:04.934Z,4.80
2023-02-14T04:33:41.135Z,4.70
2023-02-14T04:37:21.999Z,5.50
2023-02-14T04:40:57.966Z,4.90
2023-02-14T04:44:34.196Z,5.20
2023-02-14T04:48:12.091Z,7.20
2023-02-14T04:52:10.657Z,6.50
2023-02-14T04:55:35.070Z,5.60
2023-02-14T04:59:12.270Z,6.90
2023-02-14T05:02:51.347Z,5.10
2023-02-14T05:06:30.854Z,6.60
2023-02-14T05:10:24.256Z,5.40
2023-02-14T05:13:46.467Z,4.30
2023-02-14T05:17:24.583Z,5.20
2023-02-14T05:21:21.057Z,5.10
2023-02-14T05:25:02.407Z,5.80
2023-02-14T05:28:43.660Z,5.60
2023-02-14T05:32:05.941Z,4.90
2023-02-14T05:35:46.634Z,6.00
2023-02-14T05:39:21.132Z,5.10
2023-02-14T05:43:00.470Z,5.90
2023-02-14T05:46:36.396Z,5.60
2023-02-14T05:50:33.181Z,5.90
2023-02-14T05:54:14.658Z,5.80
2023-02-14T05:57:58.616Z,5.50
2023-02-14T06:01:23.492Z,5.70
2023-02-14T06:04:58.994Z,6.10
2023-02-14T06:08:55.413Z,6.50
2023-02-14T06:12:17.441Z,6.70
2023-02-14T06:15:55.050Z,6.90
2023-02-14T06:19:32.726Z,6.10
2023-02-14T06:23:11.188Z,6.80
2023-02-14T06:26:48.031Z,6.30
2023-02-14T06:30:46.286Z,6.10
2023-02-14T06:34:27.407Z,6.10
2023-02-14T06:37:49.539Z,6.20
2023-02-14T06:41:27.150Z,6.40
2023-02-14T06:45:24.688Z,6.20
2023-02-14T06:49:05.894Z,5.50
2023-02-14T06:52:46.870Z,5.70
2023-02-14T06:56:30.657Z,5.20
2023-02-14T06:59:52.379Z,5.90
2023-02-14T07:03:48.951Z,6.30
2023-02-14T07:07:16.223Z,6.10
2023-02-14T07:11:07.721Z,5.80
2023-02-14T07:14:48.946Z,5.60
2023-02-14T07:18:12.466Z,5.70
2023-02-14T07:22:08.748Z,7.10
2023-02-14T07:25:31.062Z,6.20
2023-02-14T07:29:08.639Z,6.40
2023-02-14T07:33:05.098Z,6.20
2023-02-14T07:36:31.553Z,7.00
2023-02-14T07:40:24.591Z,6.20
2023-02-14T07:44:05.749Z,5.90
2023-02-14T07:47:29.339Z,5.80
2023-02-14T07:51:24.371Z,6.50
2023-02-14T07:55:06.835Z,6.10
2023-02-14T07:58:29.178Z,7.40
2023-02-14T08:02:11.328Z,6.70
2023-02-14T08:05:57.284Z,6.10
2023-02-14T08:09:25.780Z,7.00
2023-02-14T08:13:19.813Z,5.70
2023-02-14T08:17:03.730Z,5.80
2023-02-14T08:20:50.877Z,13.70
2023-02-14T08:24:34.340Z,6.60
2023-02-14T08:27:57.682Z,6.20
2023-02-14T08:31:38.491Z,6.40
2023-02-14T08:35:12.043Z,7.20
2023-02-14T08:39:12.525Z,7.80
2023-02-14T08:42:36.442Z,7.10
2023-02-14T08:46:16.865Z,8.30
2023-02-14T08:50:14.417Z,8.30
2023-02-14T08:53:55.631Z,5.70
2023-02-14T08:57:18.662Z,7.60
2023-02-14T09:00:55.903Z,7.70
2023-02-14T09:04:35.449Z,6.20
2023-02-14T09:08:12.985Z,7.10
2023-02-14T09:12:09.534Z,5.70
2023-02-14T09:15:50.615Z,6.20
2023-02-14T09:19:12.903Z,6.30
2023-02-14T09:23:09.745Z,6.90
2023-02-14T09:26:38.891Z,6.00
2023-02-14T09:30:28.824Z,8.00
2023-02-14T09:34:30.560Z,7.40
2023-02-14T09:38:12.574Z,5.90
2023-02-14T09:41:58.169Z,5.60
2023-02-14T09:45:43.068Z,6.30
2023-02-14T09:49:34.996Z,6.30
2023-02-14T09:53:26.654Z,6.30
2023-02-14T09:57:11.762Z,4.00
2023-02-14T10:01:10.527Z,6.50
2023-02-14T10:04:49.907Z,6.50
2023-02-14T10:08:47.484Z,4.70
2023-02-14T10:12:47.696Z,5.70
2023-02-14T10:16:33.576Z,6.00
2023-02-14T10:20:27.451Z,4.90
2023-02-14T10:23:56.361Z,4.00
2023-02-14T10:27:48.973Z,5.30
2023-02-14T10:31:20.496Z,5.00
2023-02-14T10:34:51.784Z,4.70
2023-02-14T10:38:41.550Z,5.10
2023-02-14T10:42:25.948Z,5.10
2023-02-14T10:46:40.485Z,5.70
2023-02-14T10:50:44.890Z,5.20
2023-02-14T10:54:25.845Z,5.40
2023-02-14T10:57:53.826Z,5.40
2023-02-14T11:01:26.358Z,5.30
2023-02-14T11:05:05.077Z,4.10
2023-02-14T11:08:43.288Z,4.70
2023-02-14T11:12:37.994Z,6.00
2023-02-14T11:16:04.190Z,6.20
2023-02-14T11:19:38.959Z,5.70
2023-02-14T11:23:21.034Z,7.70
2023-02-14T11:27:05.273Z,5.20
2023-02-14T11:30:51.896Z,7.00
2023-02-14T11:34:39.367Z,6.80
2023-02-14T11:38:33.649Z,4.80
2023-02-14T11:42:01.328Z,6.90
2023-02-14T11:45:40.155Z,5.60
2023-02-14T11:49:55.764Z,6.00
2023-02-14T11:53:51.530Z,6.40
2023-02-14T11:57:18.846Z,7.70
2023-02-14T12:01:25.919Z,6.60
2023-02-14T12:04:52.953Z,6.10
2023-02-14T12:08:44.911Z,6.20
2023-02-14T12:12:27.605Z,5.20
2023-02-14T12:15:54.650Z,5.60
2023-02-14T12:19:54.007Z,5.90
2023-02-14T12:23:22.538Z,5.10
2023-02-14T12:27:29.082Z,6.10
2023-02-14T12:30:52.612Z,6.30
2023-02-14T12:34:29.848Z,7.70
2023-02-14T12:38:35.836Z,5.70
2023-02-14T12:42:25.558Z,5.00
2023-02-14T12:46:43.857Z,6.20
2023-02-14T12:50:24.851Z,7.50
2023-02-14T12:54:23.991Z,6.40
2023-02-14T12:58:01.271Z,5.70
2023-02-14T13:01:38.498Z,7.60
2023-02-14T13:05:37.256Z,7.40
2023-02-14T13:09:28.769Z,8.00
2023-02-14T13:13:29.958Z,6.20
2023-02-14T13:17:06.445Z,6.70
2023-02-14T13:20:32.715Z,7.00
2023-02-14T13:24:19.877Z,4.90
2023-02-14T13:27:45.224Z,5.90
2023-02-14T13:31:41.942Z,7.60
2023-02-14T13:35:06.888Z,7.90
2023-02-14T13:38:49.025Z,7.60
2023-02-14T13:42:47.493Z,7.90
2023-02-14T13:46:31.614Z,6.50
2023-02-14T13:50:20.878Z,6.70
2023-02-14T13:54:19.174Z,7.40
2023-02-14T13:58:15.678Z,6.80
2023-02-14T14:02:27.614Z,6.90
2023-02-14T14:06:01.493Z,7.10
2023-02-14T14:09:41.750Z,7.80
2023-02-14T14:13:07.216Z,4.60
2023-02-14T14:16:58.527Z,5.90
2023-02-14T14:20:23.182Z,6.90
2023-02-14T14:24:33.354Z,7.00
2023-02-14T14:28:21.369Z,7.40
2023-02-14T14:31:45.154Z,5.60
2023-02-14T14:35:52.256Z,4.30
2023-02-14T14:39:40.750Z,6.40
2023-02-14T14:43:13.284Z,6.00
2023-02-14T14:46:43.353Z,7.40
2023-02-14T14:50:27.549Z,7.80
2023-02-14T14:54:03.426Z,6.30
2023-02-14T14:57:39.895Z,6.00
2023-02-14T15:01:30.888Z,5.60
2023-02-14T15:04:55.727Z,6.10
2023-02-14T15:08:34.430Z,5.90
2023-02-14T15:12:29.885Z,6.00
2023-02-14T15:16:29.347Z,6.90
2023-02-14T15:20:04.664Z,7.30
2023-02-14T15:23:30.288Z,6.60
2023-02-14T15:27:27.600Z,5.50
2023-02-14T15:31:08.776Z,6.10
2023-02-14T15:34:53.242Z,6.00
2023-02-14T15:38:18.111Z,5.80
2023-02-14T15:41:55.990Z,5.10
2023-02-14T15:45:31.334Z,5.50
2023-02-14T15:49:11.782Z,6.20
2023-02-14T15:52:48.171Z,6.70
2023-02-14T15:56:31.612Z,6.30
2023-02-14T16:00:06.593Z,7.70
2023-02-14T16:03:48.202Z,7.40
2023-02-14T16:07:28.454Z,6.60
2023-02-14T16:11:15.139Z,6.20
2023-02-14T16:14:44.200Z,7.20
2023-02-14T16:18:46.813Z,6.20
2023-02-14T16:22:11.360Z,6.30
2023-02-14T16:26:07.315Z,9.00
2023-02-14T16:29:29.148Z,9.40
2023-02-14T16:33:21.212Z,6.80
2023-02-14T16:36:48.789Z,8.60
2023-02-14T16:40:44.621Z,11.20
2023-02-14T16:44:07.027Z,8.60
2023-02-14T16:47:48.361Z,8.70
2023-02-14T16:51:43.929Z,8.00
2023-02-14T16:55:07.045Z,5.90
2023-02-14T16:58:46.223Z,7.90
2023-02-14T17:02:22.522Z,7.30
2023-02-14T17:06:26.934Z,10.20
2023-02-14T17:09:56.099Z,8.40
2023-02-14T17:13:27.765Z,9.50
2023-02-14T17:17:04.280Z,10.10
2023-02-14T17:21:01.232Z,11.00
2023-02-14T17:24:29.801Z,10.80
2023-02-14T17:28:03.633Z,9.50
2023-02-14T17:31:59.894Z,9.50
2023-02-14T17:35:40.701Z,8.20
2023-02-14T17:39:03.361Z,6.90
2023-02-14T17:42:40.595Z,4.90
2023-02-14T17:46:21.033Z,6.60
2023-02-14T17:49:55.398Z,8.90
2023-02-14T17:53:34.188Z,8.00
2023-02-14T17:57:12.643Z,10.10
2023-02-14T18:01:11.350Z,11.00
2023-02-14T18:04:36.368Z,8.30
2023-02-14T18:08:13.777Z,9.70
2023-02-14T18:11:50.529Z,6.70
2023-02-14T18:15:46.647Z,8.90
2023-02-14T18:19:28.195Z,7.10
2023-02-14T18:22:50.365Z,10.00
2023-02-14T18:26:27.967Z,9.10
2023-02-14T18:30:06.707Z,9.60
2023-02-14T18:34:04.542Z,8.70
2023-02-14T18:37:26.769Z,8.70
2023-02-14T18:41:06.301Z,9.30
2023-02-14T18:45:01.377Z,8.30
2023-02-14T18:48:45.108Z,10.60
2023-02-14T18:52:07.285Z,10.90
2023-02-14T18:56:10.430Z,11.20
2023-02-14T18:59:32.882Z,10.20
2023-02-14T19:03:15.037Z,11.50
2023-02-14T19:07:07.296Z,10.20
2023-02-14T19:10:37.596Z,9.30
2023-02-14T19:14:10.355Z,13.30
2023-02-14T19:17:45.058Z,11.60
2023-02-14T19:21:25.029Z,11.60
2023-02-14T19:25:22.481Z,12.80
2023-02-14T19:28:47.405Z,12.20
2023-02-14T19:32:22.719Z,11.10
2023-02-14T19:36:02.005Z,10.00
2023-02-14T19:39:38.833Z,10.50
2023-02-14T19:43:38.606Z,8.90
2023-02-14T19:47:04.220Z,10.10
2023-02-14T19:50:39.348Z,10.30
2023-02-14T19:54:39.563Z,10.60
2023-02-14T19:58:20.781Z,10.70
2023-02-14T20:01:54.548Z,11.80
2023-02-14T20:05:22.904Z,11.40
2023-02-14T20:08:59.940Z,10.20
2023-02-14T20:12:56.241Z,10.10
2023-02-14T20:16:25.904Z,9.90
2023-02-14T20:20:01.946Z,11.10
2023-02-14T20:24:04.804Z,10.20
2023-02-14T20:27:46.428Z,10.00
2023-02-14T20:31:31.026Z,9.80
2023-02-14T20:34:54.316Z,14.20
2023-02-14T20:38:33.629Z,13.90
2023-02-14T20:42:28.317Z,14.30
2023-02-14T20:45:50.812Z,11.70
2023-02-14T20:49:30.768Z,12.20
2023-02-14T20:53:07.843Z,12.10
2023-02-14T20:56:43.720Z,11.30
2023-02-14T21:00:25.664Z,12.10
2023-02-14T21:03:58.925Z,12.60
2023-02-14T21:07:38.347Z,12.20
2023-02-14T21:11:16.629Z,11.20
2023-02-14T21:15:11.264Z,12.20
2023-02-14T21:18:58.134Z,9.80
2023-02-14T21:22:20.374Z,7.90
2023-02-14T21:25:58.170Z,11.70
2023-02-14T21:29:35.609Z,11.20
2023-02-14T21:33:15.477Z,12.30
2023-02-14T21:37:10.461Z,13.40
2023-02-14T21:40:32.639Z,13.60
2023-02-14T21:44:30.199Z,9.80
2023-02-14T21:48:31.227Z,11.00
2023-02-14T21:51:53.902Z,8.70
2023-02-14T21:55:33.276Z,13.60
2023-02-14T21:59:14.308Z,16.10
2023-02-14T22:03:05.515Z,12.00
2023-02-14T22:06:52.274Z,15.00
2023-02-14T22:10:40.497Z,18.50
2023-02-14T22:18:07.291Z,18.30
2023-02-14T22:25:33.349Z,16.60
2023-02-14T22:36:37.374Z,15.30
2023-02-14T22:40:24.647Z,14.60
2023-02-14T22:47:49.649Z,16.40
2023-02-14T23:02:30.152Z,15.50
2023-02-14T23:06:17.792Z,14.00
2023-02-14T23:10:09.027Z,12.40
2023-02-14T23:14:17.857Z,12.50
2023-02-14T23:18:24.527Z,15.10
2023-02-14T23:25:49.397Z,9.40
2023-02-14T23:29:42.404Z,11.10
2023-02-14T23:36:46.041Z,9.90
2023-02-14T23:41:01.593Z,9.30
2023-02-14T23:44:44.846Z,10.20
2023-02-14T23:48:28.261Z,10.60
2023-02-14T23:52:11.539Z,11.90
2023-02-14T23:55:52.537Z,11.90
2023-02-14T23:59:39.411Z,8.20
